createdAt,value
2023-05-22T00:01:52.370Z,17.74
2023-05-22T00:04:38.076Z,17.73
2023-05-22T00:07:23.541Z,17.86
2023-05-22T00:10:09.499Z,17.67
2023-05-22T00:12:54.908Z,17.75
2023-05-22T00:15:40.341Z,17.66
2023-05-22T00:18:25.682Z,17.63
2023-05-22T00:21:12.010Z,17.58
2023-05-22T00:23:56.870Z,17.55
2023-05-22T00:26:42.378Z,17.63
2023-05-22T00:29:27.768Z,17.52
2023-05-22T00:32:13.031Z,17.50
2023-05-22T00:34:58.593Z,17.48
2023-05-22T00:37:43.992Z,17.50
2023-05-22T00:40:29.608Z,17.47
2023-05-22T00:43:14.832Z,17.49
2023-05-22T00:46:00.286Z,17.56
2023-05-22T00:48:45.388Z,17.49
2023-05-22T00:51:30.620Z,17.57
2023-05-22T00:54:16.939Z,17.52
2023-05-22T00:57:03.275Z,17.61
2023-05-22T00:59:48.894Z,17.67
2023-05-22T01:02:34.156Z,17.64
2023-05-22T01:05:19.337Z,17.56
2023-05-22T01:08:06.359Z,17.51
2023-05-22T01:10:56.833Z,17.60
2023-05-22T01:14:07.934Z,17.61
2023-05-22T01:17:22.653Z,17.64
2023-05-22T01:20:17.090Z,17.50
2023-05-22T01:23:23.781Z,17.73
2023-05-22T01:26:33.598Z,17.59
2023-05-22T01:29:38.540Z,17.47
2023-05-22T01:32:25.401Z,17.41
2023-05-22T01:35:12.079Z,17.44
2023-05-22T01:37:58.290Z,17.35
2023-05-22T01:40:45.611Z,17.39
2023-05-22T01:43:30.790Z,17.39
2023-05-22T01:46:16.008Z,17.35
2023-05-22T01:49:01.565Z,17.61
2023-05-22T01:51:49.789Z,17.56
2023-05-22T01:54:56.002Z,17.43
2023-05-22T01:57:50.137Z,17.43
2023-05-22T02:00:39.506Z,17.51
2023-05-22T02:03:30.080Z,17.50
2023-05-22T02:06:15.684Z,17.45
2023-05-22T02:09:02.176Z,17.46
2023-05-22T02:11:48.614Z,17.50
2023-05-22T02:14:34.404Z,17.55
2023-05-22T02:17:19.618Z,17.66
2023-05-22T02:20:05.491Z,17.84
2023-05-22T02:22:50.643Z,17.75
2023-05-22T02:25:36.046Z,17.78
2023-05-22T02:28:21.173Z,17.64
2023-05-22T02:31:06.432Z,17.60
2023-05-22T02:33:51.709Z,17.64
2023-05-22T02:36:37.135Z,17.55
2023-05-22T02:39:22.415Z,17.58
2023-05-22T02:42:07.693Z,17.58
2023-05-22T02:44:52.859Z,17.55
2023-05-22T02:47:38.248Z,17.54
2023-05-22T02:50:23.618Z,17.60
2023-05-22T02:53:08.976Z,17.75
2023-05-22T02:55:53.863Z,17.62
2023-05-22T02:58:39.488Z,17.56
2023-05-22T03:01:24.654Z,17.57
2023-05-22T03:04:10.124Z,17.65
2023-05-22T03:06:55.745Z,17.72
2023-05-22T03:09:41.118Z,17.78
2023-05-22T03:12:26.405Z,17.78
2023-05-22T03:15:11.828Z,17.72
2023-05-22T03:17:57.238Z,17.63
2023-05-22T03:20:42.812Z,17.70
2023-05-22T03:23:27.913Z,17.67
2023-05-22T03:26:13.160Z,17.62
2023-05-22T03:28:58.777Z,17.61
2023-05-22T03:31:44.057Z,17.76
2023-05-22T03:34:29.512Z,17.72
2023-05-22T03:37:14.794Z,17.73
2023-05-22T03:39:59.849Z,17.82
2023-05-22T03:42:45.300Z,17.69
2023-05-22T03:45:30.560Z,17.65
2023-05-22T03:48:15.946Z,17.70
2023-05-22T03:51:01.474Z,17.54
2023-05-22T03:53:46.584Z,17.67
2023-05-22T03:56:31.966Z,17.61
2023-05-22T03:59:17.290Z,17.58
2023-05-22T04:02:02.860Z,17.50
2023-05-22T04:04:48.223Z,17.40
2023-05-22T04:07:33.521Z,17.56
2023-05-22T04:10:18.876Z,17.56
2023-05-22T04:13:07.310Z,17.48
2023-05-22T04:15:52.897Z,17.37
2023-05-22T04:18:37.863Z,17.40
2023-05-22T04:21:23.625Z,17.45
2023-05-22T04:24:08.891Z,17.54
2023-05-22T04:26:54.199Z,17.48
2023-05-22T04:29:39.494Z,17.45
2023-05-22T04:32:24.849Z,17.51
2023-05-22T04:35:11.082Z,17.50
2023-05-22T04:37:57.208Z,17.49
2023-05-22T04:40:42.509Z,17.44
2023-05-22T04:43:27.749Z,17.38
2023-05-22T04:46:13.201Z,17.37
2023-05-22T04:48:58.438Z,17.48
2023-05-22T04:51:43.915Z,17.42
2023-05-22T04:54:28.694Z,17.45
2023-05-22T04:57:14.241Z,17.66
2023-05-22T04:59:59.624Z,17.70
2023-05-22T05:02:45.078Z,17.76
2023-05-22T05:05:30.394Z,17.88
2023-05-22T05:08:15.851Z,17.85
2023-05-22T05:11:01.010Z,17.83
2023-05-22T05:13:46.297Z,17.76
2023-05-22T05:16:31.803Z,17.95
2023-05-22T05:19:18.233Z,18.00
2023-05-22T05:22:03.429Z,18.05
2023-05-22T05:24:48.996Z,18.15
2023-05-22T05:27:34.342Z,18.13
2023-05-22T05:30:20.613Z,18.09
2023-05-22T05:33:06.311Z,18.07
2023-05-22T05:35:51.310Z,18.06
2023-05-22T05:38:36.902Z,18.10
2023-05-22T05:41:22.249Z,18.16
2023-05-22T05:44:07.794Z,18.23
2023-05-22T05:46:53.138Z,18.22
2023-05-22T05:49:38.504Z,18.35
2023-05-22T05:52:23.948Z,18.34
2023-05-22T05:55:09.748Z,18.50
2023-05-22T05:57:55.191Z,18.39
2023-05-22T06:00:40.842Z,18.32
2023-05-22T06:03:26.169Z,18.39
2023-05-22T06:06:11.611Z,18.37
2023-05-22T06:08:56.881Z,18.26
2023-05-22T06:11:42.319Z,18.28
2023-05-22T06:14:27.668Z,18.25
2023-05-22T06:17:12.674Z,18.27
2023-05-22T06:19:58.117Z,18.35
2023-05-22T06:22:43.668Z,18.48
2023-05-22T06:25:29.113Z,18.45
2023-05-22T06:28:14.640Z,18.53
2023-05-22T06:30:59.955Z,18.42
2023-05-22T06:33:45.070Z,18.67
2023-05-22T06:36:30.364Z,18.71
2023-05-22T06:39:17.120Z,18.71
2023-05-22T06:42:02.200Z,18.83
2023-05-22T06:44:47.791Z,18.89
2023-05-22T06:47:33.119Z,18.88
2023-05-22T06:50:18.633Z,19.14
2023-05-22T06:53:04.030Z,19.32
2023-05-22T06:55:49.420Z,19.40
2023-05-22T06:58:34.711Z,19.53
2023-05-22T07:01:19.997Z,19.63
2023-05-22T07:04:05.551Z,19.66
2023-05-22T07:06:50.878Z,19.77
2023-05-22T07:09:35.991Z,19.93
2023-05-22T07:12:21.597Z,20.01
2023-05-22T07:15:07.553Z,20.28
2023-05-22T07:17:52.625Z,20.38
2023-05-22T07:20:38.346Z,20.31
2023-05-22T07:23:25.003Z,20.28
2023-05-22T07:26:11.526Z,20.49
2023-05-22T07:28:56.879Z,20.60
2023-05-22T07:31:42.714Z,20.58
2023-05-22T07:34:28.365Z,20.76
2023-05-22T07:37:15.051Z,20.85
2023-05-22T07:40:00.806Z,20.82
2023-05-22T07:42:46.147Z,20.85
2023-05-22T07:45:32.450Z,20.85
2023-05-22T07:48:18.632Z,20.98
2023-05-22T07:51:04.640Z,21.20
2023-05-22T07:53:50.277Z,21.33
2023-05-22T07:56:35.787Z,21.36
2023-05-22T07:59:21.181Z,21.59
2023-05-22T08:02:06.677Z,21.48
2023-05-22T08:04:51.861Z,21.43
2023-05-22T08:07:37.367Z,21.34
2023-05-22T08:10:22.596Z,21.13
2023-05-22T08:13:07.845Z,21.02
2023-05-22T08:16:00.357Z,21.45
2023-05-22T08:18:46.902Z,21.56
2023-05-22T08:21:32.380Z,21.71
2023-05-22T08:24:18.098Z,21.80
2023-05-22T08:27:04.424Z,22.01
2023-05-22T08:29:49.488Z,22.28
2023-05-22T08:32:35.117Z,22.07
2023-05-22T08:35:20.327Z,21.89
2023-05-22T08:38:05.867Z,21.84
2023-05-22T08:40:53.873Z,22.08
2023-05-22T08:43:41.693Z,21.97
2023-05-22T08:46:29.492Z,21.84
2023-05-22T08:49:17.274Z,22.12
2023-05-22T08:52:26.504Z,22.28
2023-05-22T08:55:12.446Z,22.38
2023-05-22T08:57:58.308Z,22.67
2023-05-22T09:00:44.108Z,23.05
2023-05-22T09:03:30.581Z,23.39
2023-05-22T09:06:15.706Z,23.79
2023-05-22T09:09:04.792Z,23.85
2023-05-22T09:11:50.616Z,22.70
2023-05-22T09:14:43.010Z,22.65
2023-05-22T09:17:28.770Z,22.68
2023-05-22T09:20:14.325Z,22.71
2023-05-22T09:22:59.866Z,22.41
2023-05-22T09:25:45.945Z,22.50
2023-05-22T09:28:36.193Z,22.70
2023-05-22T09:31:21.492Z,23.23
2023-05-22T09:34:09.864Z,23.33
2023-05-22T09:37:02.301Z,23.04
2023-05-22T09:39:48.087Z,23.09
2023-05-22T09:42:37.137Z,22.27
2023-05-22T09:45:22.894Z,22.36
2023-05-22T09:48:09.987Z,22.58
2023-05-22T09:50:57.089Z,22.66
2023-05-22T09:53:43.717Z,22.67
2023-05-22T09:56:39.089Z,23.40
2023-05-22T09:59:28.045Z,23.17
2023-05-22T10:02:16.965Z,23.50
2023-05-22T10:05:07.221Z,23.31
2023-05-22T10:07:56.610Z,23.69
2023-05-22T10:10:43.475Z,23.95
2023-05-22T10:13:37.015Z,24.17
2023-05-22T10:16:23.115Z,24.06
2023-05-22T10:19:10.244Z,24.19
2023-05-22T10:21:56.628Z,24.71
2023-05-22T10:24:42.654Z,24.04
2023-05-22T10:27:27.834Z,23.35
2023-05-22T10:30:23.306Z,23.97
2023-05-22T10:33:17.564Z,23.23
2023-05-22T10:36:07.575Z,24.27
2023-05-22T10:39:11.543Z,25.14
2023-05-22T10:41:56.899Z,25.40
2023-05-22T10:44:43.010Z,24.58
2023-05-22T10:47:28.734Z,24.74
2023-05-22T10:50:13.982Z,25.13
2023-05-22T10:53:28.121Z,25.46
2023-05-22T10:56:15.457Z,25.77
2023-05-22T10:59:02.338Z,25.79
2023-05-22T11:01:47.837Z,26.12
2023-05-22T11:04:33.230Z,26.41
2023-05-22T11:07:18.729Z,26.43
2023-05-22T11:10:04.166Z,26.46
2023-05-22T11:13:02.954Z,26.58
2023-05-22T11:15:48.469Z,26.60
2023-05-22T11:18:33.668Z,26.78
2023-05-22T11:21:18.923Z,26.23
2023-05-22T11:24:07.695Z,26.54
2023-05-22T11:27:07.171Z,26.63
2023-05-22T11:29:54.244Z,26.12
2023-05-22T11:32:40.902Z,25.90
2023-05-22T11:35:28.403Z,26.19
2023-05-22T11:38:15.124Z,26.54
2023-05-22T11:41:00.448Z,26.95
2023-05-22T11:43:45.905Z,26.62
2023-05-22T11:46:31.479Z,26.78
2023-05-22T11:49:17.070Z,27.16
2023-05-22T11:52:03.233Z,27.58
2023-05-22T11:54:48.854Z,27.31
2023-05-22T11:57:37.785Z,27.55
2023-05-22T12:00:23.177Z,27.19
2023-05-22T12:03:08.586Z,26.91
2023-05-22T12:05:54.505Z,27.33
2023-05-22T12:08:40.586Z,27.76
2023-05-22T12:11:26.601Z,27.75
2023-05-22T12:14:12.027Z,28.34
2023-05-22T12:17:02.310Z,28.71
2023-05-22T12:19:47.586Z,28.57
2023-05-22T12:22:33.461Z,28.15
2023-05-22T12:25:18.633Z,27.72
2023-05-22T12:28:06.354Z,28.53
2023-05-22T12:30:55.904Z,28.55
2023-05-22T12:33:41.324Z,28.24
2023-05-22T12:36:40.335Z,27.81
2023-05-22T12:39:25.977Z,28.46
2023-05-22T12:42:11.171Z,28.73
2023-05-22T12:44:57.856Z,29.08
2023-05-22T12:47:43.029Z,29.02
2023-05-22T12:50:28.245Z,28.42
2023-05-22T12:53:14.248Z,28.09
2023-05-22T12:55:59.430Z,27.57
2023-05-22T12:58:44.908Z,27.47
2023-05-22T13:01:30.333Z,27.04
2023-05-22T13:04:15.556Z,26.99
2023-05-22T13:07:01.382Z,27.64
2023-05-22T13:09:47.001Z,28.09
2023-05-22T13:12:32.880Z,28.34
2023-05-22T13:15:18.509Z,28.10
2023-05-22T13:18:03.820Z,28.71
2023-05-22T13:20:49.410Z,28.23
2023-05-22T13:23:34.867Z,26.96
2023-05-22T13:26:20.363Z,26.18
2023-05-22T13:29:05.817Z,25.68
2023-05-22T13:31:51.084Z,25.96
2023-05-22T13:34:36.686Z,26.60
2023-05-22T13:37:21.921Z,26.54
2023-05-22T13:40:08.696Z,25.96
2023-05-22T13:42:54.282Z,26.43
2023-05-22T13:45:40.513Z,25.03
2023-05-22T13:48:26.335Z,25.19
2023-05-22T13:51:11.668Z,25.10
2023-05-22T13:53:57.263Z,24.76
2023-05-22T13:56:42.216Z,24.92
2023-05-22T13:59:27.480Z,25.38
2023-05-22T14:02:13.094Z,25.34
2023-05-22T14:04:58.473Z,24.91
2023-05-22T14:07:43.888Z,24.96
2023-05-22T14:10:32.330Z,24.78
2023-05-22T14:13:17.723Z,24.76
2023-05-22T14:16:03.005Z,24.50
2023-05-22T14:18:48.176Z,24.41
2023-05-22T14:21:33.782Z,24.65
2023-05-22T14:24:18.876Z,24.85
2023-05-22T14:29:49.928Z,24.76
2023-05-22T14:32:35.317Z,25.43
2023-05-22T14:35:21.549Z,25.82
2023-05-22T14:38:07.255Z,25.97
2023-05-22T14:40:52.663Z,26.22
2023-05-22T14:43:37.783Z,25.90
2023-05-22T14:46:23.206Z,24.65
2023-05-22T14:49:08.777Z,24.38
2023-05-22T14:51:54.132Z,24.69
2023-05-22T14:54:39.233Z,25.08
2023-05-22T14:57:24.795Z,25.36
2023-05-22T15:00:10.908Z,25.60
2023-05-22T15:02:56.323Z,25.74
2023-05-22T15:05:41.799Z,25.91
2023-05-22T15:08:27.039Z,25.48
2023-05-22T15:11:12.192Z,24.77
2023-05-22T15:13:57.555Z,24.84
2023-05-22T15:16:42.790Z,25.17
2023-05-22T15:19:27.989Z,25.55
2023-05-22T15:22:19.470Z,25.22
2023-05-22T15:25:10.623Z,25.10
2023-05-22T15:27:55.940Z,24.46
2023-05-22T15:30:40.796Z,24.25
2023-05-22T15:33:26.254Z,23.04
2023-05-22T15:36:11.800Z,21.96
2023-05-22T15:38:57.331Z,21.88
2023-05-22T15:41:48.866Z,21.54
2023-05-22T15:44:40.228Z,21.53
2023-05-22T15:47:26.137Z,21.18
2023-05-22T15:50:11.779Z,20.32
2023-05-22T15:52:56.948Z,18.78
2023-05-22T15:55:42.499Z,17.64
2023-05-22T15:58:27.822Z,17.25
2023-05-22T16:01:13.173Z,16.94
2023-05-22T16:03:58.523Z,16.22
2023-05-22T16:06:43.886Z,16.09
2023-05-22T16:09:31.400Z,15.59
2023-05-22T16:12:18.340Z,15.43
2023-05-22T16:15:06.553Z,16.22
2023-05-22T16:17:52.159Z,16.42
2023-05-22T16:20:37.447Z,16.41
2023-05-22T16:23:23.016Z,16.45
2023-05-22T16:26:08.408Z,16.64
2023-05-22T16:28:53.906Z,16.18
2023-05-22T16:31:39.595Z,16.22
2023-05-22T16:34:24.878Z,16.40
2023-05-22T16:37:10.382Z,16.68
2023-05-22T16:39:55.896Z,16.87
2023-05-22T16:42:41.232Z,17.14
2023-05-22T16:45:26.362Z,16.94
2023-05-22T16:48:11.592Z,16.92
2023-05-22T16:50:57.103Z,17.03
2023-05-22T16:53:42.330Z,17.13
2023-05-22T16:56:27.995Z,17.01
2023-05-22T16:59:13.344Z,16.89
2023-05-22T17:01:59.218Z,16.68
2023-05-22T17:04:44.817Z,16.66
2023-05-22T17:07:30.043Z,16.74
2023-05-22T17:10:15.588Z,16.73
2023-05-22T17:13:00.817Z,17.03
2023-05-22T17:18:47.870Z,17.21
2023-05-22T17:21:33.212Z,17.12
2023-05-22T17:24:18.723Z,17.08
2023-05-22T17:27:04.035Z,17.06
2023-05-22T17:29:49.285Z,17.01
2023-05-22T17:32:35.013Z,16.97
2023-05-22T17:35:21.713Z,16.94
2023-05-22T17:38:07.277Z,17.05
2023-05-22T17:40:52.444Z,17.07
2023-05-22T17:43:37.783Z,17.16
2023-05-22T17:46:23.004Z,17.25
2023-05-22T17:49:08.202Z,17.21
2023-05-22T17:51:53.472Z,17.23
2023-05-22T17:54:38.907Z,17.32
2023-05-22T17:57:24.306Z,17.38
2023-05-22T18:00:10.319Z,17.32
2023-05-22T18:02:55.513Z,17.31
2023-05-22T18:05:41.153Z,17.46
2023-05-22T18:08:26.482Z,17.39
2023-05-22T18:11:11.870Z,17.47
2023-05-22T18:13:57.222Z,17.48
2023-05-22T18:16:42.755Z,17.40
2023-05-22T18:19:28.252Z,17.42
2023-05-22T18:22:13.523Z,17.43
2023-05-22T18:24:59.012Z,17.36
2023-05-22T18:27:44.314Z,17.24
2023-05-22T18:30:29.797Z,17.19
2023-05-22T18:33:15.358Z,17.25
2023-05-22T18:36:00.622Z,17.00
2023-05-22T18:38:45.945Z,17.09
2023-05-22T18:41:31.295Z,16.73
2023-05-22T18:44:16.765Z,16.73
2023-05-22T18:47:02.168Z,16.65
2023-05-22T18:49:47.516Z,16.68
2023-05-22T18:52:32.921Z,16.77
2023-05-22T18:55:18.277Z,16.66
2023-05-22T18:58:03.886Z,16.51
2023-05-22T19:00:49.159Z,16.57
2023-05-22T19:03:34.536Z,16.54
2023-05-22T19:06:19.943Z,16.70
2023-05-22T19:09:05.314Z,16.78
2023-05-22T19:11:50.714Z,16.88
2023-05-22T19:14:36.576Z,16.85
2023-05-22T19:17:21.970Z,16.78
2023-05-22T19:20:07.979Z,16.61
2023-05-22T19:22:53.511Z,16.68
2023-05-22T19:25:38.993Z,16.57
2023-05-22T19:28:24.265Z,16.78
2023-05-22T19:31:09.547Z,16.89
2023-05-22T19:33:55.379Z,16.88
2023-05-22T19:36:40.636Z,16.97
2023-05-22T19:39:26.256Z,16.83
2023-05-22T19:42:11.346Z,16.90
2023-05-22T19:44:56.651Z,16.97
2023-05-22T19:47:42.368Z,16.74
2023-05-22T19:50:27.475Z,16.78
2023-05-22T19:53:12.994Z,16.76
2023-05-22T19:55:58.560Z,16.77
2023-05-22T19:58:43.733Z,16.84
2023-05-22T20:01:29.157Z,16.83
2023-05-22T20:04:14.615Z,16.82
2023-05-22T20:06:59.941Z,16.86
2023-05-22T20:09:45.299Z,16.94
2023-05-22T20:12:30.792Z,16.96
2023-05-22T20:15:16.091Z,17.06
2023-05-22T20:18:01.657Z,17.08
2023-05-22T20:20:47.145Z,17.02
2023-05-22T20:23:32.553Z,16.99
2023-05-22T20:26:17.870Z,16.85
2023-05-22T20:29:03.038Z,17.03
2023-05-22T20:31:48.167Z,16.95
2023-05-22T20:34:33.471Z,16.93
2023-05-22T20:37:18.935Z,16.95
2023-05-22T20:40:05.472Z,16.77
2023-05-22T20:42:50.697Z,16.74
2023-05-22T20:45:36.148Z,16.73
2023-05-22T20:48:21.369Z,16.82
2023-05-22T20:51:06.634Z,16.72
2023-05-22T20:53:52.024Z,16.47
2023-05-22T20:56:37.517Z,16.50
2023-05-22T20:59:22.911Z,16.47
2023-05-22T21:02:08.299Z,16.47
2023-05-22T21:04:53.681Z,16.45
2023-05-22T21:07:38.806Z,16.56
2023-05-22T21:10:23.780Z,16.55
2023-05-22T21:13:09.113Z,16.55
2023-05-22T21:15:54.107Z,16.69
2023-05-22T21:18:39.761Z,16.71
2023-05-22T21:21:24.845Z,16.70
2023-05-22T21:24:10.585Z,16.73
2023-05-22T21:26:55.888Z,16.70
2023-05-22T21:29:41.242Z,16.76
2023-05-22T21:32:26.606Z,16.77
2023-05-22T21:35:12.165Z,16.80
2023-05-22T21:37:57.200Z,16.79
2023-05-22T21:40:42.643Z,16.82
2023-05-22T21:43:27.845Z,16.71
2023-05-22T21:46:13.350Z,16.71
2023-05-22T21:48:58.723Z,16.75
2023-05-22T21:51:43.803Z,16.80
2023-05-22T21:54:29.014Z,16.66
2023-05-22T21:57:14.118Z,16.65
2023-05-22T21:59:59.461Z,16.67
2023-05-22T22:02:45.089Z,16.68
2023-05-22T22:05:30.704Z,16.54
2023-05-22T22:08:15.656Z,16.33
2023-05-22T22:11:00.740Z,16.39
2023-05-22T22:13:45.838Z,16.43
2023-05-22T22:16:30.787Z,16.30
2023-05-22T22:19:16.426Z,16.35
2023-05-22T22:22:02.593Z,16.40
2023-05-22T22:24:48.219Z,16.34
2023-05-22T22:27:33.630Z,16.13
2023-05-22T22:30:19.031Z,16.10
2023-05-22T22:33:04.452Z,16.10
2023-05-22T22:35:49.717Z,16.17
2023-05-22T22:38:35.172Z,16.16
2023-05-22T22:41:20.303Z,16.18
2023-05-22T22:44:05.647Z,16.12
2023-05-22T22:46:50.975Z,16.01
2023-05-22T22:49:36.536Z,15.86
2023-05-22T22:52:21.921Z,15.82
2023-05-22T22:55:07.706Z,15.95
2023-05-22T22:57:53.062Z,15.86
2023-05-22T23:00:37.997Z,15.77
2023-05-22T23:03:23.270Z,15.78
2023-05-22T23:06:09.390Z,15.78
2023-05-22T23:08:55.085Z,15.78
2023-05-22T23:11:40.292Z,15.79
2023-05-22T23:14:26.343Z,15.61
2023-05-22T23:17:12.116Z,15.58
2023-05-22T23:19:56.928Z,15.55
2023-05-22T23:22:42.739Z,15.58
2023-05-22T23:25:27.754Z,15.51
2023-05-22T23:28:13.068Z,15.59
2023-05-22T23:30:57.962Z,15.51
2023-05-22T23:33:43.388Z,15.29
2023-05-22T23:36:28.933Z,15.35
2023-05-22T23:39:14.364Z,15.15
2023-05-22T23:41:59.604Z,14.99
2023-05-22T23:44:44.526Z,15.11
2023-05-22T23:47:29.730Z,14.95
2023-05-22T23:50:14.951Z,14.92
2023-05-22T23:53:00.228Z,14.77
2023-05-22T23:55:45.674Z,14.83
2023-05-22T23:58:30.897Z,14.72
